createdAt,value
2022-10-22T00:01:12.078Z,5.83
2022-10-22T00:03:41.487Z,5.80
2022-10-22T00:06:09.661Z,5.75
2022-10-22T00:08:37.681Z,5.73
2022-10-22T00:11:11.373Z,5.71
2022-10-22T00:13:39.935Z,5.69
2022-10-22T00:16:09.249Z,5.66
2022-10-22T00:18:37.905Z,5.62
2022-10-22T00:21:06.997Z,5.58
2022-10-22T00:23:35.587Z,5.55
2022-10-22T00:26:03.554Z,5.51
2022-10-22T00:28:31.626Z,5.49
2022-10-22T00:31:00.849Z,5.46
2022-10-22T00:33:30.091Z,5.44
2022-10-22T00:35:58.300Z,5.41
2022-10-22T00:38:26.676Z,5.38
2022-10-22T00:40:54.674Z,5.35
2022-10-22T00:43:22.822Z,5.34
2022-10-22T00:45:50.792Z,5.32
2022-10-22T00:48:22.443Z,5.30
2022-10-22T00:50:59.679Z,5.29
2022-10-22T00:53:35.183Z,5.27
2022-10-22T00:56:03.967Z,5.25
2022-10-22T00:58:37.411Z,5.23
2022-10-22T01:01:09.387Z,5.20
2022-10-22T01:03:37.454Z,5.18
2022-10-22T01:06:06.191Z,5.16
2022-10-22T01:08:49.648Z,5.14
2022-10-22T01:11:28.005Z,5.13
2022-10-22T01:14:13.824Z,5.11
2022-10-22T01:17:00.729Z,5.09
2022-10-22T01:19:53.591Z,5.07
2022-10-22T01:22:40.430Z,5.05
2022-10-22T01:25:14.916Z,5.01
2022-10-22T01:27:48.936Z,4.99
2022-10-22T01:30:18.543Z,4.97
2022-10-22T01:32:50.506Z,4.95
2022-10-22T01:35:24.658Z,4.94
2022-10-22T01:37:57.914Z,4.91
2022-10-22T01:40:27.488Z,4.89
2022-10-22T01:43:07.698Z,4.87
2022-10-22T01:45:42.808Z,4.86
2022-10-22T01:48:26.064Z,4.83
2022-10-22T01:51:03.187Z,4.82
2022-10-22T01:53:51.476Z,4.81
2022-10-22T01:56:41.267Z,4.81
2022-10-22T01:59:38.608Z,4.80
2022-10-22T02:02:25.942Z,4.79
2022-10-22T02:05:01.278Z,4.79
2022-10-22T02:07:34.843Z,4.78
2022-10-22T02:10:04.560Z,4.77
2022-10-22T02:12:34.249Z,4.78
2022-10-22T02:15:04.659Z,4.78
2022-10-22T02:17:35.044Z,4.77
2022-10-22T02:20:11.015Z,4.76
2022-10-22T02:22:40.307Z,4.76
2022-10-22T02:25:09.603Z,4.75
2022-10-22T02:27:51.927Z,4.74
2022-10-22T02:30:22.661Z,4.73
2022-10-22T02:32:57.833Z,4.72
2022-10-22T02:35:27.912Z,4.72
2022-10-22T02:37:58.411Z,4.73
2022-10-22T02:40:28.659Z,4.73
2022-10-22T02:42:56.836Z,4.73
2022-10-22T02:45:25.215Z,4.73
2022-10-22T02:47:53.277Z,4.74
2022-10-22T02:50:21.247Z,4.74
2022-10-22T02:52:49.178Z,4.75
2022-10-22T02:55:17.298Z,4.76
2022-10-22T02:57:45.259Z,4.77
2022-10-22T03:00:13.799Z,4.78
2022-10-22T03:02:41.811Z,4.78
2022-10-22T03:05:10.508Z,4.78
2022-10-22T03:07:39.488Z,4.78
2022-10-22T03:10:08.074Z,4.79
2022-10-22T03:12:36.256Z,4.78
2022-10-22T03:15:05.003Z,4.77
2022-10-22T03:17:32.911Z,4.75
2022-10-22T03:20:00.882Z,4.73
2022-10-22T03:22:32.946Z,4.72
2022-10-22T03:25:08.043Z,4.69
2022-10-22T03:27:39.403Z,4.66
2022-10-22T03:30:08.327Z,4.64
2022-10-22T03:32:36.193Z,4.62
2022-10-22T03:35:05.700Z,4.60
2022-10-22T03:37:34.731Z,4.57
2022-10-22T03:40:05.943Z,4.54
2022-10-22T03:42:34.689Z,4.51
2022-10-22T03:45:02.699Z,4.48
2022-10-22T03:47:30.762Z,4.44
2022-10-22T03:49:58.833Z,4.40
2022-10-22T03:52:26.905Z,4.36
2022-10-22T03:54:55.098Z,4.32
2022-10-22T03:57:23.058Z,4.29
2022-10-22T03:59:51.493Z,4.25
2022-10-22T04:02:19.507Z,4.24
2022-10-22T04:04:47.737Z,4.22
2022-10-22T04:07:15.607Z,4.20
2022-10-22T04:09:43.624Z,4.18
2022-10-22T04:12:11.587Z,4.15
2022-10-22T04:14:39.589Z,4.13
2022-10-22T04:17:07.519Z,4.09
2022-10-22T04:19:36.111Z,4.07
2022-10-22T04:22:04.492Z,4.04
2022-10-22T04:24:32.681Z,4.00
2022-10-22T04:27:00.841Z,3.96
2022-10-22T04:29:28.804Z,3.94
2022-10-22T04:31:56.775Z,3.91
2022-10-22T04:34:28.367Z,3.89
2022-10-22T04:36:56.855Z,3.87
2022-10-22T04:39:25.089Z,3.87
2022-10-22T04:41:52.994Z,3.84
2022-10-22T04:44:20.951Z,3.84
2022-10-22T04:46:49.304Z,3.84
2022-10-22T04:49:17.368Z,3.85
2022-10-22T04:51:45.290Z,3.85
2022-10-22T04:54:14.836Z,3.86
2022-10-22T04:56:42.960Z,3.87
2022-10-22T04:59:12.883Z,3.87
2022-10-22T05:01:44.182Z,3.87
2022-10-22T05:04:14.530Z,3.86
2022-10-22T05:06:43.775Z,3.88
2022-10-22T05:09:15.682Z,3.90
2022-10-22T05:11:46.412Z,3.91
2022-10-22T05:14:17.408Z,3.93
2022-10-22T05:16:48.241Z,3.95
2022-10-22T05:19:23.922Z,3.98
2022-10-22T05:21:54.089Z,4.02
2022-10-22T05:24:22.734Z,4.07
2022-10-22T05:26:52.093Z,4.12
2022-10-22T05:29:21.028Z,4.16
2022-10-22T05:31:48.869Z,4.21
2022-10-22T05:34:17.692Z,4.27
2022-10-22T05:36:45.858Z,4.32
2022-10-22T05:39:13.835Z,4.38
2022-10-22T05:41:43.025Z,4.44
2022-10-22T05:44:12.877Z,4.50
2022-10-22T05:46:43.463Z,4.59
2022-10-22T05:49:16.467Z,4.71
2022-10-22T05:51:44.796Z,4.82
2022-10-22T05:54:17.617Z,4.93
2022-10-22T05:56:46.835Z,5.02
2022-10-22T05:59:14.815Z,5.16
2022-10-22T06:01:42.976Z,5.26
2022-10-22T06:04:12.586Z,5.39
2022-10-22T06:06:50.131Z,5.53
2022-10-22T06:09:22.451Z,5.68
2022-10-22T06:11:51.092Z,5.84
2022-10-22T06:14:20.539Z,6.02
2022-10-22T06:16:49.847Z,6.21
2022-10-22T06:19:19.040Z,6.41
2022-10-22T06:21:48.138Z,6.60
2022-10-22T06:24:16.725Z,6.81
2022-10-22T06:26:45.208Z,7.05
2022-10-22T06:29:13.142Z,7.40
2022-10-22T06:31:41.241Z,7.79
2022-10-22T06:34:14.166Z,8.22
2022-10-22T06:36:44.562Z,8.88
2022-10-22T06:39:14.504Z,9.66
2022-10-22T06:41:42.745Z,10.15
2022-10-22T06:44:15.305Z,10.37
2022-10-22T06:46:43.803Z,10.54
2022-10-22T06:49:17.391Z,10.64
2022-10-22T06:51:46.263Z,10.75
2022-10-22T06:54:14.880Z,10.87
2022-10-22T06:56:42.952Z,10.91
2022-10-22T06:59:11.032Z,11.34
2022-10-22T07:01:39.959Z,12.51
2022-10-22T07:04:10.354Z,13.48
2022-10-22T07:06:38.311Z,14.37
2022-10-22T07:09:06.786Z,15.57
2022-10-22T07:11:42.331Z,16.58
2022-10-22T07:14:11.566Z,17.83
2022-10-22T07:16:42.383Z,19.45
2022-10-22T07:19:10.556Z,21.11
2022-10-22T07:21:39.032Z,22.67
2022-10-22T07:24:07.726Z,24.13
2022-10-22T07:26:37.132Z,25.49
2022-10-22T07:29:06.019Z,26.71
2022-10-22T07:31:33.859Z,27.79
2022-10-22T07:34:02.175Z,28.79
2022-10-22T07:36:30.236Z,29.72
2022-10-22T07:39:00.996Z,30.50
2022-10-22T07:41:31.404Z,31.08
2022-10-22T07:44:00.205Z,31.72
2022-10-22T07:46:28.462Z,32.31
2022-10-22T07:48:56.571Z,32.87
2022-10-22T07:51:24.605Z,33.45
2022-10-22T07:53:52.826Z,34.01
2022-10-22T07:56:21.262Z,34.28
2022-10-22T07:58:49.388Z,34.54
2022-10-22T08:01:17.572Z,35.08
2022-10-22T08:03:46.494Z,35.67
2022-10-22T08:06:15.081Z,36.14
2022-10-22T08:08:45.940Z,36.62
2022-10-22T08:11:14.228Z,37.08
2022-10-22T08:13:45.419Z,37.06
2022-10-22T08:16:15.069Z,37.10
2022-10-22T08:18:43.227Z,37.55
2022-10-22T08:21:12.951Z,37.85
2022-10-22T08:23:41.211Z,38.14
2022-10-22T08:26:10.508Z,38.42
2022-10-22T08:28:38.765Z,38.54
2022-10-22T08:31:08.182Z,38.87
2022-10-22T08:33:36.891Z,39.17
2022-10-22T08:36:05.976Z,39.44
2022-10-22T08:38:35.408Z,39.43
2022-10-22T08:41:14.102Z,39.12
2022-10-22T08:44:06.340Z,38.28
2022-10-22T08:47:03.007Z,36.84
2022-10-22T08:49:39.734Z,35.06
2022-10-22T08:52:15.610Z,33.29
2022-10-22T08:54:53.828Z,31.63
2022-10-22T08:57:24.698Z,30.05
2022-10-22T09:00:20.002Z,28.71
2022-10-22T09:03:19.084Z,27.46
2022-10-22T09:06:05.573Z,26.72
2022-10-22T09:08:35.138Z,26.86
2022-10-22T09:11:34.281Z,27.34
2022-10-22T09:14:03.954Z,27.62
2022-10-22T09:17:03.287Z,27.58
2022-10-22T09:19:41.607Z,27.24
2022-10-22T09:22:37.530Z,26.97
2022-10-22T09:25:17.527Z,26.66
2022-10-22T09:27:46.067Z,26.23
2022-10-22T09:30:16.698Z,25.78
2022-10-22T09:32:44.877Z,25.44
2022-10-22T09:35:15.332Z,25.17
2022-10-22T09:37:52.479Z,25.01
2022-10-22T09:40:21.689Z,24.96
2022-10-22T09:42:49.861Z,24.94
2022-10-22T09:45:25.715Z,24.92
2022-10-22T09:48:11.747Z,24.93
2022-10-22T09:50:44.484Z,25.01
2022-10-22T09:53:15.327Z,25.06
2022-10-22T09:55:44.130Z,25.14
2022-10-22T09:58:14.241Z,25.18
2022-10-22T10:00:46.254Z,25.10
2022-10-22T10:03:18.746Z,25.01
2022-10-22T10:06:00.193Z,24.85
2022-10-22T10:08:31.240Z,24.74
2022-10-22T10:11:06.172Z,24.60
2022-10-22T10:13:34.824Z,24.32
2022-10-22T10:16:09.859Z,24.02
2022-10-22T10:19:07.121Z,23.81
2022-10-22T10:21:41.143Z,23.62
2022-10-22T10:24:31.208Z,23.44
2022-10-22T10:27:19.469Z,23.34
2022-10-22T10:29:57.974Z,23.34
2022-10-22T10:32:35.363Z,23.27
2022-10-22T10:35:16.127Z,23.19
2022-10-22T10:37:47.113Z,23.13
2022-10-22T10:40:28.650Z,23.12
2022-10-22T10:43:08.973Z,23.15
2022-10-22T10:45:56.115Z,23.18
2022-10-22T10:48:27.173Z,23.17
2022-10-22T10:50:55.046Z,23.14
2022-10-22T10:53:49.128Z,23.12
2022-10-22T10:56:23.174Z,23.13
2022-10-22T10:58:54.487Z,23.10
2022-10-22T11:01:30.351Z,23.07
2022-10-22T11:04:14.285Z,23.03
2022-10-22T11:06:43.279Z,22.94
2022-10-22T11:09:19.465Z,22.87
2022-10-22T11:11:47.307Z,22.90
2022-10-22T11:14:24.242Z,22.97
2022-10-22T11:16:59.231Z,23.12
2022-10-22T11:19:49.776Z,23.32
2022-10-22T11:22:26.808Z,23.65
2022-10-22T11:25:02.179Z,24.02
2022-10-22T11:27:33.077Z,24.68
2022-10-22T11:30:06.071Z,25.53
2022-10-22T11:32:34.173Z,26.34
2022-10-22T11:35:06.931Z,27.07
2022-10-22T11:37:36.231Z,27.79
2022-10-22T11:40:21.099Z,28.39
2022-10-22T11:43:18.553Z,28.84
2022-10-22T11:45:50.522Z,29.07
2022-10-22T11:48:19.099Z,29.25
2022-10-22T11:50:51.063Z,29.58
2022-10-22T11:53:21.114Z,30.14
2022-10-22T11:56:21.299Z,30.54
2022-10-22T11:58:53.749Z,31.09
2022-10-22T12:01:29.988Z,31.56
2022-10-22T12:03:57.802Z,31.57
2022-10-22T12:06:26.388Z,30.91
2022-10-22T12:08:57.678Z,30.28
2022-10-22T12:11:29.658Z,29.83
2022-10-22T12:14:13.752Z,29.28
2022-10-22T12:17:01.722Z,28.65
2022-10-22T12:19:30.993Z,27.99
2022-10-22T12:22:11.605Z,27.32
2022-10-22T12:24:41.880Z,26.67
2022-10-22T12:27:23.422Z,26.10
2022-10-22T12:29:56.460Z,25.53
2022-10-22T12:32:32.918Z,24.96
2022-10-22T12:35:05.137Z,24.50
2022-10-22T12:37:35.480Z,24.04
2022-10-22T12:40:16.334Z,23.64
2022-10-22T12:43:05.903Z,23.21
2022-10-22T12:45:35.220Z,22.85
2022-10-22T12:48:05.351Z,22.51
2022-10-22T12:50:40.280Z,22.16
2022-10-22T12:53:18.902Z,21.89
2022-10-22T12:55:49.685Z,21.60
2022-10-22T12:58:21.359Z,21.30
2022-10-22T13:00:53.969Z,21.02
2022-10-22T13:03:28.076Z,20.78
2022-10-22T13:05:55.864Z,20.56
2022-10-22T13:08:27.213Z,20.35
2022-10-22T13:10:55.514Z,20.17
2022-10-22T13:13:43.682Z,20.01
2022-10-22T13:16:14.958Z,19.83
2022-10-22T13:18:44.159Z,19.64
2022-10-22T13:21:41.311Z,19.50
2022-10-22T13:24:23.523Z,19.31
2022-10-22T13:26:53.842Z,19.15
2022-10-22T13:29:23.246Z,19.00
2022-10-22T13:31:52.657Z,18.84
2022-10-22T13:34:22.057Z,18.69
2022-10-22T13:36:50.227Z,18.55
2022-10-22T13:39:19.132Z,18.42
2022-10-22T13:41:47.223Z,18.26
2022-10-22T13:44:15.370Z,18.12
2022-10-22T13:46:43.662Z,17.99
2022-10-22T13:49:23.479Z,17.89
2022-10-22T13:51:52.898Z,17.78
2022-10-22T13:54:22.827Z,17.68
2022-10-22T13:56:50.709Z,17.60
2022-10-22T13:59:21.314Z,17.51
2022-10-22T14:01:52.400Z,17.43
2022-10-22T14:04:20.219Z,17.33
2022-10-22T14:06:48.161Z,17.24
2022-10-22T14:09:16.325Z,17.15
2022-10-22T14:11:44.351Z,17.06
2022-10-22T14:14:14.425Z,16.96
2022-10-22T14:16:42.656Z,16.87
2022-10-22T14:19:14.955Z,16.78
2022-10-22T14:21:42.972Z,16.69
2022-10-22T14:24:13.134Z,16.61
2022-10-22T14:26:41.875Z,16.54
2022-10-22T14:29:11.069Z,16.47
2022-10-22T14:34:10.181Z,16.34
2022-10-22T14:36:37.945Z,16.26
2022-10-22T14:39:05.931Z,16.18
2022-10-22T14:41:33.836Z,16.10
2022-10-22T14:44:01.888Z,16.01
2022-10-22T14:46:30.028Z,15.93
2022-10-22T14:48:57.905Z,15.84
2022-10-22T14:51:26.281Z,15.76
2022-10-22T14:53:54.149Z,15.68
2022-10-22T14:56:22.418Z,15.60
2022-10-22T14:58:50.391Z,15.54
2022-10-22T15:01:18.161Z,15.45
2022-10-22T15:03:46.232Z,15.37
2022-10-22T15:06:14.138Z,15.29
2022-10-22T15:08:42.113Z,15.20
2022-10-22T15:11:11.780Z,15.12
2022-10-22T15:13:41.584Z,15.04
2022-10-22T15:16:10.684Z,14.97
2022-10-22T15:18:38.958Z,14.90
2022-10-22T15:21:08.165Z,14.83
2022-10-22T15:23:36.759Z,14.74
2022-10-22T15:26:07.461Z,14.66
2022-10-22T15:28:36.270Z,14.60
2022-10-22T15:31:04.880Z,14.53
2022-10-22T15:33:33.331Z,14.46
2022-10-22T15:36:10.624Z,14.39
2022-10-22T15:38:38.594Z,14.33
2022-10-22T15:41:10.071Z,14.28
2022-10-22T15:43:37.967Z,14.22
2022-10-22T15:46:16.174Z,14.17
2022-10-22T15:48:44.110Z,14.11
2022-10-22T15:51:13.148Z,14.06
2022-10-22T15:53:41.567Z,14.00
2022-10-22T15:56:09.945Z,13.93
2022-10-22T15:58:37.907Z,13.88
2022-10-22T16:01:10.364Z,13.83
2022-10-22T16:03:38.255Z,13.79
2022-10-22T16:06:07.202Z,13.76
2022-10-22T16:08:35.490Z,13.72
2022-10-22T16:11:03.904Z,13.68
2022-10-22T16:13:31.874Z,13.65
2022-10-22T16:16:04.659Z,13.61
2022-10-22T16:18:32.628Z,13.57
2022-10-22T16:21:00.388Z,13.54
2022-10-22T16:23:28.262Z,13.51
2022-10-22T16:25:56.630Z,13.48
2022-10-22T16:28:24.543Z,13.44
2022-10-22T16:30:52.467Z,13.39
2022-10-22T16:33:20.240Z,13.36
2022-10-22T16:35:48.303Z,13.35
2022-10-22T16:38:16.484Z,13.32
2022-10-22T16:40:44.456Z,13.30
2022-10-22T16:43:12.362Z,13.28
2022-10-22T16:45:46.849Z,13.26
2022-10-22T16:48:15.019Z,13.23
2022-10-22T16:50:43.674Z,13.22
2022-10-22T16:53:11.781Z,13.21
2022-10-22T16:55:39.637Z,13.18
2022-10-22T16:58:07.392Z,13.16
2022-10-22T17:00:35.434Z,13.16
2022-10-22T17:03:03.750Z,13.15
2022-10-22T17:05:31.933Z,13.14
2022-10-22T17:08:00.005Z,13.14
2022-10-22T17:10:28.078Z,13.13
2022-10-22T17:12:55.892Z,13.12
2022-10-22T17:15:23.709Z,13.11
2022-10-22T17:17:53.932Z,13.10
2022-10-22T17:20:22.099Z,13.08
2022-10-22T17:22:49.970Z,13.04
2022-10-22T17:25:25.000Z,13.02
2022-10-22T17:27:55.878Z,13.00
2022-10-22T17:30:27.268Z,12.98
2022-10-22T17:32:55.469Z,12.97
2022-10-22T17:35:23.576Z,12.94
2022-10-22T17:37:51.504Z,12.92
2022-10-22T17:40:19.379Z,12.91
2022-10-22T17:42:49.388Z,12.89
2022-10-22T17:45:17.403Z,12.89
2022-10-22T17:47:45.335Z,12.88
2022-10-22T17:50:13.739Z,12.88
2022-10-22T17:52:43.304Z,12.86
2022-10-22T17:55:12.929Z,12.86
2022-10-22T17:57:40.804Z,12.85
2022-10-22T18:00:09.141Z,12.84
2022-10-22T18:02:37.977Z,12.83
2022-10-22T18:05:06.119Z,12.82
2022-10-22T18:07:33.930Z,12.82
2022-10-22T18:10:01.971Z,12.81
2022-10-22T18:12:30.152Z,12.80
2022-10-22T18:14:58.011Z,12.80
2022-10-22T18:17:26.389Z,12.79
2022-10-22T18:19:54.522Z,12.79
2022-10-22T18:22:22.540Z,12.79
2022-10-22T18:24:50.709Z,12.77
2022-10-22T18:27:19.000Z,12.75
2022-10-22T18:29:49.212Z,12.74
2022-10-22T18:32:17.794Z,12.72
2022-10-22T18:34:45.770Z,12.69
2022-10-22T18:37:13.844Z,12.68
2022-10-22T18:39:41.763Z,12.67
2022-10-22T18:42:09.634Z,12.64
2022-10-22T18:44:37.750Z,12.64
2022-10-22T18:47:06.330Z,12.65
2022-10-22T18:49:34.813Z,12.65
2022-10-22T18:52:03.005Z,12.65
2022-10-22T18:54:30.763Z,12.66
2022-10-22T18:57:02.938Z,12.65
2022-10-22T18:59:32.150Z,12.65
2022-10-22T19:02:00.437Z,12.65
2022-10-22T19:04:33.608Z,12.65
2022-10-22T19:07:01.397Z,12.65
2022-10-22T19:09:29.430Z,12.64
2022-10-22T19:11:58.422Z,12.63
2022-10-22T19:14:26.292Z,12.61
2022-10-22T19:16:54.460Z,12.60
2022-10-22T19:19:23.075Z,12.59
2022-10-22T19:21:50.906Z,12.59
2022-10-22T19:24:20.206Z,12.58
2022-10-22T19:26:49.007Z,12.56
2022-10-22T19:29:18.196Z,12.55
2022-10-22T19:31:46.163Z,12.53
2022-10-22T19:34:14.482Z,12.50
2022-10-22T19:36:42.517Z,12.47
2022-10-22T19:39:10.383Z,12.44
2022-10-22T19:41:38.352Z,12.42
2022-10-22T19:44:06.173Z,12.39
2022-10-22T19:46:34.080Z,12.35
2022-10-22T19:49:02.882Z,12.33
2022-10-22T19:51:33.778Z,12.29
2022-10-22T19:54:03.223Z,12.26
2022-10-22T19:56:32.283Z,12.24
2022-10-22T19:59:00.153Z,12.22
2022-10-22T20:01:28.265Z,12.19
2022-10-22T20:03:56.256Z,12.18
2022-10-22T20:06:24.390Z,12.17
2022-10-22T20:08:55.408Z,12.16
2022-10-22T20:11:26.117Z,12.15
2022-10-22T20:13:54.860Z,12.14
2022-10-22T20:16:24.414Z,12.12
2022-10-22T20:18:52.966Z,12.10
2022-10-22T20:21:21.021Z,12.08
2022-10-22T20:23:52.189Z,12.07
2022-10-22T20:26:20.684Z,12.06
2022-10-22T20:28:48.610Z,12.06
2022-10-22T20:31:17.604Z,12.04
2022-10-22T20:33:45.881Z,12.03
2022-10-22T20:36:16.001Z,12.02
2022-10-22T20:38:43.979Z,12.01
2022-10-22T20:41:12.862Z,12.01
2022-10-22T20:43:43.087Z,12.01
2022-10-22T20:46:31.029Z,12.01
2022-10-22T20:49:03.726Z,12.01
2022-10-22T20:51:32.088Z,12.01
2022-10-22T20:53:59.956Z,12.00
2022-10-22T20:56:28.541Z,11.99
2022-10-22T20:59:04.805Z,11.98
2022-10-22T21:01:37.589Z,11.97
2022-10-22T21:04:05.632Z,11.97
2022-10-22T21:06:34.310Z,11.95
2022-10-22T21:09:02.277Z,11.94
2022-10-22T21:11:30.480Z,11.93
2022-10-22T21:13:58.661Z,11.91
2022-10-22T21:16:26.521Z,11.89
2022-10-22T21:18:54.601Z,11.88
2022-10-22T21:21:22.529Z,11.86
2022-10-22T21:23:50.643Z,11.84
2022-10-22T21:26:19.330Z,11.82
2022-10-22T21:28:47.498Z,11.79
2022-10-22T21:31:22.095Z,11.76
2022-10-22T21:33:50.513Z,11.75
2022-10-22T21:36:22.428Z,11.73
2022-10-22T21:38:51.976Z,11.72
2022-10-22T21:41:21.585Z,11.70
2022-10-22T21:43:50.039Z,11.68
2022-10-22T21:46:22.740Z,11.66
2022-10-22T21:48:53.884Z,11.64
2022-10-22T21:51:22.571Z,11.63
2022-10-22T21:56:32.695Z,11.61
2022-10-22T21:59:01.563Z,11.59
2022-10-22T22:01:29.531Z,11.58
2022-10-22T22:03:57.704Z,11.57
2022-10-22T22:06:29.566Z,11.55
2022-10-22T22:08:59.121Z,11.54
2022-10-22T22:11:27.946Z,11.54
2022-10-22T22:13:56.519Z,11.53
2022-10-22T22:16:28.353Z,11.53
2022-10-22T22:18:58.488Z,11.52
2022-10-22T22:21:26.368Z,11.50
2022-10-22T22:23:54.342Z,11.49
2022-10-22T22:26:26.744Z,11.48
2022-10-22T22:28:58.454Z,11.47
2022-10-22T22:31:28.594Z,11.46
2022-10-22T22:34:01.686Z,11.45
2022-10-22T22:36:33.664Z,11.44
2022-10-22T22:39:02.130Z,11.43
2022-10-22T22:41:29.840Z,11.43
2022-10-22T22:43:57.692Z,11.43
2022-10-22T22:46:25.724Z,11.43
2022-10-22T22:48:53.589Z,11.43
2022-10-22T22:51:21.668Z,11.43
2022-10-22T22:53:49.642Z,11.42
2022-10-22T22:56:18.740Z,11.41
2022-10-22T22:58:46.537Z,11.41
2022-10-22T23:01:19.080Z,11.42
2022-10-22T23:03:48.379Z,11.41
2022-10-22T23:06:16.251Z,11.42
2022-10-22T23:08:44.465Z,11.42
2022-10-22T23:11:13.776Z,11.42
2022-10-22T23:13:42.406Z,11.43
2022-10-22T23:16:13.133Z,11.43
2022-10-22T23:18:41.110Z,11.42
2022-10-22T23:21:22.935Z,11.43
2022-10-22T23:23:52.209Z,11.43
2022-10-22T23:26:21.498Z,11.42
2022-10-22T23:28:49.571Z,11.42
2022-10-22T23:31:18.470Z,11.41
2022-10-22T23:33:46.829Z,11.41
2022-10-22T23:36:14.657Z,11.41
2022-10-22T23:38:43.600Z,11.40
2022-10-22T23:41:11.570Z,11.39
2022-10-22T23:43:39.546Z,11.40
2022-10-22T23:46:08.334Z,11.40
2022-10-22T23:48:36.920Z,11.40
2022-10-22T23:51:09.291Z,11.40
2022-10-22T23:53:37.252Z,11.39
2022-10-22T23:56:06.764Z,11.40
2022-10-22T23:58:35.355Z,11.42
